sensor_id;sensor_type;location;lat;lon;timestamp;P1;durP1;ratioP1;P2;durP2;ratioP2
39322;SDS011;25036;53.638;10.134;2023-05-21T00:00:28;5.00;;;1.67;;
39322;SDS011;25036;53.638;10.134;2023-05-21T00:01:28;4.23;;;1.70;;
39322;SDS011;25036;53.638;10.134;2023-05-21T00:02:28;4.28;;;1.85;;
39322;SDS011;25036;53.638;10.134;2023-05-21T00:03:28;4.72;;;1.65;;
39322;SDS011;25036;53.638;10.134;2023-05-21T00:04:29;5.85;;;1.73;;
39322;SDS011;25036;53.638;10.134;2023-05-21T00:05:32;5.55;;;1.70;;
39322;SDS011;25036;53.638;10.134;2023-05-21T00:06:33;5.23;;;1.67;;
39322;SDS011;25036;53.638;10.134;2023-05-21T00:07:34;3.47;;;1.50;;
39322;SDS011;25036;53.638;10.134;2023-05-21T00:08:35;2.75;;;1.27;;
39322;SDS011;25036;53.638;10.134;2023-05-21T00:09:36;2.88;;;1.50;;
39322;SDS011;25036;53.638;10.134;2023-05-21T00:10:39;6.03;;;1.70;;
39322;SDS011;25036;53.638;10.134;2023-05-21T00:11:39;4.70;;;1.70;;
39322;SDS011;25036;53.638;10.134;2023-05-21T00:12:40;6.13;;;1.73;;
39322;SDS011;25036;53.638;10.134;2023-05-21T00:13:40;5.72;;;1.70;;
39322;SDS011;25036;53.638;10.134;2023-05-21T00:14:40;2.88;;;1.90;;
39322;SDS011;25036;53.638;10.134;2023-05-21T00:15:41;5.30;;;1.60;;
39322;SDS011;25036;53.638;10.134;2023-05-21T00:16:41;3.13;;;1.45;;
39322;SDS011;25036;53.638;10.134;2023-05-21T00:17:41;6.72;;;2.25;;
39322;SDS011;25036;53.638;10.134;2023-05-21T00:18:42;3.22;;;1.20;;
39322;SDS011;25036;53.638;10.134;2023-05-21T00:19:43;4.97;;;1.58;;
39322;SDS011;25036;53.638;10.134;2023-05-21T00:20:43;5.07;;;1.60;;
39322;SDS011;25036;53.638;10.134;2023-05-21T00:21:44;1.95;;;1.13;;
39322;SDS011;25036;53.638;10.134;2023-05-21T00:22:44;4.22;;;1.42;;
39322;SDS011;25036;53.638;10.134;2023-05-21T00:23:44;4.27;;;1.50;;
39322;SDS011;25036;53.638;10.134;2023-05-21T00:24:47;4.10;;;1.65;;
39322;SDS011;25036;53.638;10.134;2023-05-21T00:25:47;3.27;;;1.77;;
39322;SDS011;25036;53.638;10.134;2023-05-21T00:26:47;5.33;;;1.77;;
39322;SDS011;25036;53.638;10.134;2023-05-21T00:27:47;5.15;;;1.67;;
39322;SDS011;25036;53.638;10.134;2023-05-21T00:28:48;4.05;;;1.42;;
39322;SDS011;25036;53.638;10.134;2023-05-21T00:29:48;4.57;;;1.92;;
39322;SDS011;25036;53.638;10.134;2023-05-21T00:30:48;3.90;;;1.77;;
39322;SDS011;25036;53.638;10.134;2023-05-21T00:31:49;5.30;;;1.73;;
39322;SDS011;25036;53.638;10.134;2023-05-21T00:32:49;2.50;;;1.40;;
39322;SDS011;25036;53.638;10.134;2023-05-21T00:33:50;4.63;;;1.60;;
39322;SDS011;25036;53.638;10.134;2023-05-21T00:34:50;4.87;;;2.00;;
39322;SDS011;25036;53.638;10.134;2023-05-21T00:35:50;4.93;;;1.60;;
39322;SDS011;25036;53.638;10.134;2023-05-21T00:36:50;3.70;;;1.73;;
39322;SDS011;25036;53.638;10.134;2023-05-21T00:37:52;2.63;;;1.20;;
39322;SDS011;25036;53.638;10.134;2023-05-21T00:38:52;3.00;;;1.40;;
39322;SDS011;25036;53.638;10.134;2023-05-21T00:39:52;3.67;;;1.60;;
39322;SDS011;25036;53.638;10.134;2023-05-21T00:40:53;4.07;;;1.53;;
39322;SDS011;25036;53.638;10.134;2023-05-21T00:41:53;3.57;;;1.90;;
39322;SDS011;25036;53.638;10.134;2023-05-21T00:42:55;3.65;;;1.60;;
39322;SDS011;25036;53.638;10.134;2023-05-21T00:43:56;4.25;;;1.77;;
39322;SDS011;25036;53.638;10.134;2023-05-21T00:44:59;4.45;;;1.88;;
39322;SDS011;25036;53.638;10.134;2023-05-21T00:45:59;3.70;;;1.77;;
39322;SDS011;25036;53.638;10.134;2023-05-21T00:47:00;4.13;;;1.57;;
39322;SDS011;25036;53.638;10.134;2023-05-21T00:48:01;3.63;;;1.60;;
39322;SDS011;25036;53.638;10.134;2023-05-21T00:49:03;3.80;;;1.50;;
39322;SDS011;25036;53.638;10.134;2023-05-21T00:50:03;4.30;;;1.47;;
39322;SDS011;25036;53.638;10.134;2023-05-21T00:51:03;3.83;;;1.88;;
39322;SDS011;25036;53.638;10.134;2023-05-21T00:52:04;5.47;;;1.65;;
39322;SDS011;25036;53.638;10.134;2023-05-21T00:53:06;3.03;;;1.88;;
39322;SDS011;25036;53.638;10.134;2023-05-21T00:54:09;2.70;;;1.48;;
39322;SDS011;25036;53.638;10.134;2023-05-21T00:55:09;6.17;;;1.73;;
39322;SDS011;25036;53.638;10.134;2023-05-21T00:56:09;4.10;;;1.52;;
39322;SDS011;25036;53.638;10.134;2023-05-21T00:57:10;7.43;;;1.98;;
39322;SDS011;25036;53.638;10.134;2023-05-21T00:58:10;5.77;;;1.80;;
39322;SDS011;25036;53.638;10.134;2023-05-21T00:59:10;5.07;;;2.20;;
39322;SDS011;25036;53.638;10.134;2023-05-21T01:00:11;3.00;;;1.73;;
39322;SDS011;25036;53.638;10.134;2023-05-21T01:01:13;4.85;;;2.10;;
39322;SDS011;25036;53.638;10.134;2023-05-21T01:02:13;4.32;;;1.83;;
39322;SDS011;25036;53.638;10.134;2023-05-21T01:03:16;5.80;;;2.05;;
39322;SDS011;25036;53.638;10.134;2023-05-21T01:04:17;2.72;;;1.50;;
39322;SDS011;25036;53.638;10.134;2023-05-21T01:05:19;3.08;;;1.60;;
39322;SDS011;25036;53.638;10.134;2023-05-21T01:06:20;3.80;;;1.80;;
39322;SDS011;25036;53.638;10.134;2023-05-21T01:07:21;4.60;;;2.07;;
39322;SDS011;25036;53.638;10.134;2023-05-21T01:08:21;4.60;;;1.90;;
39322;SDS011;25036;53.638;10.134;2023-05-21T01:09:21;2.38;;;1.48;;
39322;SDS011;25036;53.638;10.134;2023-05-21T01:10:21;2.63;;;1.85;;
39322;SDS011;25036;53.638;10.134;2023-05-21T01:11:24;3.80;;;1.67;;
39322;SDS011;25036;53.638;10.134;2023-05-21T01:12:28;2.72;;;1.60;;
39322;SDS011;25036;53.638;10.134;2023-05-21T01:13:29;6.47;;;2.00;;
39322;SDS011;25036;53.638;10.134;2023-05-21T01:14:30;4.35;;;1.83;;
39322;SDS011;25036;53.638;10.134;2023-05-21T01:15:30;4.45;;;2.03;;
39322;SDS011;25036;53.638;10.134;2023-05-21T01:16:30;3.63;;;1.60;;
39322;SDS011;25036;53.638;10.134;2023-05-21T01:17:31;3.72;;;1.50;;
39322;SDS011;25036;53.638;10.134;2023-05-21T01:18:36;3.15;;;1.70;;
39322;SDS011;25036;53.638;10.134;2023-05-21T01:19:36;5.35;;;2.17;;
39322;SDS011;25036;53.638;10.134;2023-05-21T01:20:36;4.22;;;1.77;;
39322;SDS011;25036;53.638;10.134;2023-05-21T01:21:39;3.30;;;1.60;;
39322;SDS011;25036;53.638;10.134;2023-05-21T01:23:01;2.75;;;1.50;;
39322;SDS011;25036;53.638;10.134;2023-05-21T01:24:00;4.75;;;1.55;;
39322;SDS011;25036;53.638;10.134;2023-05-21T01:25:04;4.78;;;1.65;;
39322;SDS011;25036;53.638;10.134;2023-05-21T01:26:04;3.08;;;1.60;;
39322;SDS011;25036;53.638;10.134;2023-05-21T01:27:06;3.53;;;1.70;;
39322;SDS011;25036;53.638;10.134;2023-05-21T01:28:06;4.68;;;1.63;;
39322;SDS011;25036;53.638;10.134;2023-05-21T01:29:09;4.20;;;1.60;;
39322;SDS011;25036;53.638;10.134;2023-05-21T01:30:13;7.03;;;1.88;;
39322;SDS011;25036;53.638;10.134;2023-05-21T01:31:29;4.05;;;1.70;;
39322;SDS011;25036;53.638;10.134;2023-05-21T01:33:37;4.37;;;1.70;;
39322;SDS011;25036;53.638;10.134;2023-05-21T01:34:40;6.97;;;1.80;;
39322;SDS011;25036;53.638;10.134;2023-05-21T01:35:42;4.25;;;1.60;;
39322;SDS011;25036;53.638;10.134;2023-05-21T01:36:52;5.45;;;1.60;;
39322;SDS011;25036;53.638;10.134;2023-05-21T01:37:57;4.85;;;1.67;;
39322;SDS011;25036;53.638;10.134;2023-05-21T01:39:06;4.05;;;1.70;;
39322;SDS011;25036;53.638;10.134;2023-05-21T01:40:22;4.32;;;2.15;;
39322;SDS011;25036;53.638;10.134;2023-05-21T01:41:24;4.53;;;1.90;;
39322;SDS011;25036;53.638;10.134;2023-05-21T01:42:26;4.45;;;1.67;;
39322;SDS011;25036;53.638;10.134;2023-05-21T01:43:28;4.70;;;1.80;;
39322;SDS011;25036;53.638;10.134;2023-05-21T01:44:28;6.78;;;2.03;;
39322;SDS011;25036;53.638;10.134;2023-05-21T01:45:29;7.07;;;1.70;;
39322;SDS011;25036;53.638;10.134;2023-05-21T01:46:30;4.97;;;1.45;;
39322;SDS011;25036;53.638;10.134;2023-05-21T01:47:31;4.57;;;2.00;;
39322;SDS011;25036;53.638;10.134;2023-05-21T01:48:32;4.45;;;1.63;;
39322;SDS011;25036;53.638;10.134;2023-05-21T01:49:33;5.40;;;1.80;;
39322;SDS011;25036;53.638;10.134;2023-05-21T01:50:34;5.43;;;1.55;;
39322;SDS011;25036;53.638;10.134;2023-05-21T01:51:34;3.95;;;1.73;;
39322;SDS011;25036;53.638;10.134;2023-05-21T01:52:35;3.20;;;1.45;;
39322;SDS011;25036;53.638;10.134;2023-05-21T01:53:35;2.47;;;1.50;;
39322;SDS011;25036;53.638;10.134;2023-05-21T01:54:37;3.70;;;1.75;;
39322;SDS011;25036;53.638;10.134;2023-05-21T01:55:37;4.73;;;1.40;;
39322;SDS011;25036;53.638;10.134;2023-05-21T01:56:40;4.80;;;1.67;;
39322;SDS011;25036;53.638;10.134;2023-05-21T01:57:40;2.65;;;1.35;;
39322;SDS011;25036;53.638;10.134;2023-05-21T01:58:41;4.10;;;1.50;;
39322;SDS011;25036;53.638;10.134;2023-05-21T01:59:42;5.07;;;1.80;;
39322;SDS011;25036;53.638;10.134;2023-05-21T02:00:43;3.38;;;1.60;;
39322;SDS011;25036;53.638;10.134;2023-05-21T02:01:44;4.63;;;1.65;;
39322;SDS011;25036;53.638;10.134;2023-05-21T02:02:44;6.72;;;2.13;;
39322;SDS011;25036;53.638;10.134;2023-05-21T02:03:44;3.75;;;1.60;;
39322;SDS011;25036;53.638;10.134;2023-05-21T02:04:44;4.27;;;1.87;;
39322;SDS011;25036;53.638;10.134;2023-05-21T02:05:45;3.50;;;1.83;;
39322;SDS011;25036;53.638;10.134;2023-05-21T02:06:46;4.95;;;1.80;;
39322;SDS011;25036;53.638;10.134;2023-05-21T02:07:46;4.47;;;2.22;;
39322;SDS011;25036;53.638;10.134;2023-05-21T02:08:46;5.53;;;2.13;;
39322;SDS011;25036;53.638;10.134;2023-05-21T02:09:47;4.00;;;1.77;;
39322;SDS011;25036;53.638;10.134;2023-05-21T02:10:47;4.38;;;1.65;;
39322;SDS011;25036;53.638;10.134;2023-05-21T02:11:47;5.28;;;1.80;;
39322;SDS011;25036;53.638;10.134;2023-05-21T02:12:48;3.67;;;1.57;;
39322;SDS011;25036;53.638;10.134;2023-05-21T02:13:48;2.50;;;1.63;;
39322;SDS011;25036;53.638;10.134;2023-05-21T02:14:48;5.38;;;2.00;;
39322;SDS011;25036;53.638;10.134;2023-05-21T02:15:49;3.38;;;1.40;;
39322;SDS011;25036;53.638;10.134;2023-05-21T02:16:50;4.00;;;1.70;;
39322;SDS011;25036;53.638;10.134;2023-05-21T02:17:51;4.97;;;1.92;;
39322;SDS011;25036;53.638;10.134;2023-05-21T02:18:51;5.18;;;2.38;;
39322;SDS011;25036;53.638;10.134;2023-05-21T02:19:56;4.60;;;1.70;;
39322;SDS011;25036;53.638;10.134;2023-05-21T02:20:56;5.68;;;2.05;;
39322;SDS011;25036;53.638;10.134;2023-05-21T02:21:56;5.47;;;1.93;;
39322;SDS011;25036;53.638;10.134;2023-05-21T02:22:56;3.80;;;1.90;;
39322;SDS011;25036;53.638;10.134;2023-05-21T02:23:56;3.63;;;1.87;;
39322;SDS011;25036;53.638;10.134;2023-05-21T02:24:56;3.95;;;2.00;;
39322;SDS011;25036;53.638;10.134;2023-05-21T02:25:58;4.97;;;1.80;;
39322;SDS011;25036;53.638;10.134;2023-05-21T02:26:58;3.60;;;1.92;;
39322;SDS011;25036;53.638;10.134;2023-05-21T02:27:58;3.43;;;2.03;;
39322;SDS011;25036;53.638;10.134;2023-05-21T02:28:59;5.50;;;1.85;;
39322;SDS011;25036;53.638;10.134;2023-05-21T02:30:00;5.50;;;2.40;;
39322;SDS011;25036;53.638;10.134;2023-05-21T02:31:00;5.05;;;2.15;;
39322;SDS011;25036;53.638;10.134;2023-05-21T02:32:00;4.77;;;2.00;;
39322;SDS011;25036;53.638;10.134;2023-05-21T02:33:00;4.40;;;2.07;;
39322;SDS011;25036;53.638;10.134;2023-05-21T02:34:01;5.25;;;2.10;;
39322;SDS011;25036;53.638;10.134;2023-05-21T02:35:02;4.23;;;2.37;;
39322;SDS011;25036;53.638;10.134;2023-05-21T02:36:02;5.40;;;2.20;;
39322;SDS011;25036;53.638;10.134;2023-05-21T02:37:03;5.53;;;2.40;;
39322;SDS011;25036;53.638;10.134;2023-05-21T02:38:03;4.20;;;1.77;;
39322;SDS011;25036;53.638;10.134;2023-05-21T02:39:03;4.67;;;2.30;;
39322;SDS011;25036;53.638;10.134;2023-05-21T02:40:03;3.85;;;2.20;;
39322;SDS011;25036;53.638;10.134;2023-05-21T02:41:07;3.97;;;1.90;;
39322;SDS011;25036;53.638;10.134;2023-05-21T02:42:07;4.53;;;2.10;;
39322;SDS011;25036;53.638;10.134;2023-05-21T02:43:07;4.00;;;1.65;;
39322;SDS011;25036;53.638;10.134;2023-05-21T02:44:07;4.13;;;2.17;;
39322;SDS011;25036;53.638;10.134;2023-05-21T02:45:08;4.72;;;1.60;;
39322;SDS011;25036;53.638;10.134;2023-05-21T02:46:08;6.93;;;2.50;;
39322;SDS011;25036;53.638;10.134;2023-05-21T02:47:08;4.63;;;2.03;;
39322;SDS011;25036;53.638;10.134;2023-05-21T02:48:09;6.80;;;1.95;;
39322;SDS011;25036;53.638;10.134;2023-05-21T02:49:10;5.20;;;1.80;;
39322;SDS011;25036;53.638;10.134;2023-05-21T02:50:12;5.23;;;2.10;;
39322;SDS011;25036;53.638;10.134;2023-05-21T02:51:12;5.57;;;2.42;;
39322;SDS011;25036;53.638;10.134;2023-05-21T02:52:12;5.47;;;1.90;;
39322;SDS011;25036;53.638;10.134;2023-05-21T02:53:12;4.13;;;1.80;;
39322;SDS011;25036;53.638;10.134;2023-05-21T02:54:13;4.20;;;1.90;;
39322;SDS011;25036;53.638;10.134;2023-05-21T02:55:13;4.55;;;2.03;;
39322;SDS011;25036;53.638;10.134;2023-05-21T02:56:13;4.53;;;2.10;;
39322;SDS011;25036;53.638;10.134;2023-05-21T02:57:14;5.33;;;2.10;;
39322;SDS011;25036;53.638;10.134;2023-05-21T02:58:14;7.73;;;1.90;;
39322;SDS011;25036;53.638;10.134;2023-05-21T02:59:14;3.63;;;2.30;;
39322;SDS011;25036;53.638;10.134;2023-05-21T03:00:14;5.37;;;2.37;;
39322;SDS011;25036;53.638;10.134;2023-05-21T03:01:15;5.95;;;1.95;;
39322;SDS011;25036;53.638;10.134;2023-05-21T03:02:15;3.60;;;1.90;;
39322;SDS011;25036;53.638;10.134;2023-05-21T03:03:16;3.28;;;1.70;;
39322;SDS011;25036;53.638;10.134;2023-05-21T03:04:16;5.57;;;1.83;;
39322;SDS011;25036;53.638;10.134;2023-05-21T03:05:17;6.15;;;2.17;;
39322;SDS011;25036;53.638;10.134;2023-05-21T03:06:17;3.17;;;2.00;;
39322;SDS011;25036;53.638;10.134;2023-05-21T03:07:17;4.80;;;1.75;;
39322;SDS011;25036;53.638;10.134;2023-05-21T03:08:18;3.47;;;1.70;;
39322;SDS011;25036;53.638;10.134;2023-05-21T03:09:18;5.13;;;2.00;;
39322;SDS011;25036;53.638;10.134;2023-05-21T03:10:20;6.82;;;2.38;;
39322;SDS011;25036;53.638;10.134;2023-05-21T03:11:20;5.33;;;1.80;;
39322;SDS011;25036;53.638;10.134;2023-05-21T03:12:21;6.10;;;2.40;;
39322;SDS011;25036;53.638;10.134;2023-05-21T03:13:21;3.30;;;2.05;;
39322;SDS011;25036;53.638;10.134;2023-05-21T03:14:22;6.15;;;2.10;;
39322;SDS011;25036;53.638;10.134;2023-05-21T03:15:23;5.03;;;2.00;;
39322;SDS011;25036;53.638;10.134;2023-05-21T03:16:23;4.50;;;1.80;;
39322;SDS011;25036;53.638;10.134;2023-05-21T03:17:23;4.23;;;2.27;;
39322;SDS011;25036;53.638;10.134;2023-05-21T03:18:23;5.40;;;2.03;;
39322;SDS011;25036;53.638;10.134;2023-05-21T03:19:24;5.77;;;2.53;;
39322;SDS011;25036;53.638;10.134;2023-05-21T03:20:24;5.28;;;2.30;;
39322;SDS011;25036;53.638;10.134;2023-05-21T03:21:25;3.28;;;2.15;;
39322;SDS011;25036;53.638;10.134;2023-05-21T03:22:28;5.05;;;2.17;;
39322;SDS011;25036;53.638;10.134;2023-05-21T03:23:29;5.67;;;2.20;;
39322;SDS011;25036;53.638;10.134;2023-05-21T03:24:29;6.53;;;2.37;;
39322;SDS011;25036;53.638;10.134;2023-05-21T03:25:29;5.60;;;2.28;;
39322;SDS011;25036;53.638;10.134;2023-05-21T03:26:29;6.30;;;2.27;;
39322;SDS011;25036;53.638;10.134;2023-05-21T03:27:29;3.83;;;1.80;;
39322;SDS011;25036;53.638;10.134;2023-05-21T03:28:30;3.53;;;2.10;;
39322;SDS011;25036;53.638;10.134;2023-05-21T03:29:30;5.07;;;2.35;;
39322;SDS011;25036;53.638;10.134;2023-05-21T03:30:30;6.50;;;2.10;;
39322;SDS011;25036;53.638;10.134;2023-05-21T03:31:30;6.20;;;2.50;;
39322;SDS011;25036;53.638;10.134;2023-05-21T03:32:30;4.72;;;2.10;;
39322;SDS011;25036;53.638;10.134;2023-05-21T03:33:32;4.65;;;2.00;;
39322;SDS011;25036;53.638;10.134;2023-05-21T03:34:32;5.37;;;2.13;;
39322;SDS011;25036;53.638;10.134;2023-05-21T03:35:33;5.47;;;2.15;;
39322;SDS011;25036;53.638;10.134;2023-05-21T03:36:33;6.23;;;2.30;;
39322;SDS011;25036;53.638;10.134;2023-05-21T03:37:33;5.83;;;2.27;;
39322;SDS011;25036;53.638;10.134;2023-05-21T03:38:33;5.20;;;2.30;;
39322;SDS011;25036;53.638;10.134;2023-05-21T03:39:33;4.30;;;2.63;;
39322;SDS011;25036;53.638;10.134;2023-05-21T03:40:34;6.18;;;2.72;;
39322;SDS011;25036;53.638;10.134;2023-05-21T03:41:34;5.05;;;2.63;;
39322;SDS011;25036;53.638;10.134;2023-05-21T03:42:34;5.60;;;2.30;;
39322;SDS011;25036;53.638;10.134;2023-05-21T03:43:34;7.32;;;2.50;;
39322;SDS011;25036;53.638;10.134;2023-05-21T03:44:34;7.30;;;2.47;;
39322;SDS011;25036;53.638;10.134;2023-05-21T03:45:35;6.17;;;2.20;;
39322;SDS011;25036;53.638;10.134;2023-05-21T03:46:35;6.67;;;2.60;;
39322;SDS011;25036;53.638;10.134;2023-05-21T03:47:35;3.90;;;2.40;;
39322;SDS011;25036;53.638;10.134;2023-05-21T03:48:35;6.93;;;2.60;;
39322;SDS011;25036;53.638;10.134;2023-05-21T03:49:35;7.95;;;3.17;;
39322;SDS011;25036;53.638;10.134;2023-05-21T03:50:35;7.77;;;2.60;;
39322;SDS011;25036;53.638;10.134;2023-05-21T03:51:36;6.68;;;2.60;;
39322;SDS011;25036;53.638;10.134;2023-05-21T03:52:37;6.07;;;2.35;;
39322;SDS011;25036;53.638;10.134;2023-05-21T03:53:37;5.50;;;2.27;;
39322;SDS011;25036;53.638;10.134;2023-05-21T03:54:37;5.80;;;2.30;;
39322;SDS011;25036;53.638;10.134;2023-05-21T03:55:37;4.23;;;2.47;;
39322;SDS011;25036;53.638;10.134;2023-05-21T03:56:37;6.00;;;2.67;;
39322;SDS011;25036;53.638;10.134;2023-05-21T03:57:38;7.03;;;2.83;;
39322;SDS011;25036;53.638;10.134;2023-05-21T03:58:38;7.85;;;2.55;;
39322;SDS011;25036;53.638;10.134;2023-05-21T03:59:38;7.40;;;2.70;;
39322;SDS011;25036;53.638;10.134;2023-05-21T04:00:38;5.13;;;2.57;;
39322;SDS011;25036;53.638;10.134;2023-05-21T04:01:39;7.03;;;3.05;;
39322;SDS011;25036;53.638;10.134;2023-05-21T04:02:39;5.33;;;2.50;;
39322;SDS011;25036;53.638;10.134;2023-05-21T04:03:39;4.83;;;2.30;;
39322;SDS011;25036;53.638;10.134;2023-05-21T04:04:39;6.07;;;2.47;;
39322;SDS011;25036;53.638;10.134;2023-05-21T04:05:42;5.27;;;2.47;;
39322;SDS011;25036;53.638;10.134;2023-05-21T04:06:43;4.95;;;2.83;;
39322;SDS011;25036;53.638;10.134;2023-05-21T04:07:43;10.30;;;2.95;;
39322;SDS011;25036;53.638;10.134;2023-05-21T04:08:45;6.07;;;2.67;;
39322;SDS011;25036;53.638;10.134;2023-05-21T04:09:45;6.13;;;2.42;;
39322;SDS011;25036;53.638;10.134;2023-05-21T04:10:45;5.70;;;2.60;;
39322;SDS011;25036;53.638;10.134;2023-05-21T04:11:46;3.50;;;2.10;;
39322;SDS011;25036;53.638;10.134;2023-05-21T04:12:46;7.63;;;2.55;;
39322;SDS011;25036;53.638;10.134;2023-05-21T04:13:51;5.32;;;2.40;;
39322;SDS011;25036;53.638;10.134;2023-05-21T04:14:51;4.65;;;2.65;;
39322;SDS011;25036;53.638;10.134;2023-05-21T04:15:51;7.53;;;2.63;;
39322;SDS011;25036;53.638;10.134;2023-05-21T04:16:53;5.65;;;2.40;;
39322;SDS011;25036;53.638;10.134;2023-05-21T04:17:53;6.27;;;2.60;;
39322;SDS011;25036;53.638;10.134;2023-05-21T04:18:53;4.90;;;2.50;;
39322;SDS011;25036;53.638;10.134;2023-05-21T04:19:54;6.85;;;3.25;;
39322;SDS011;25036;53.638;10.134;2023-05-21T04:20:54;6.93;;;2.70;;
39322;SDS011;25036;53.638;10.134;2023-05-21T04:21:54;4.50;;;2.75;;
39322;SDS011;25036;53.638;10.134;2023-05-21T04:22:55;4.47;;;2.40;;
39322;SDS011;25036;53.638;10.134;2023-05-21T04:23:55;6.80;;;2.50;;
39322;SDS011;25036;53.638;10.134;2023-05-21T04:24:56;6.38;;;2.80;;
39322;SDS011;25036;53.638;10.134;2023-05-21T04:25:58;3.45;;;2.08;;
39322;SDS011;25036;53.638;10.134;2023-05-21T04:26:58;5.37;;;2.33;;
39322;SDS011;25036;53.638;10.134;2023-05-21T04:28:00;7.65;;;2.55;;
39322;SDS011;25036;53.638;10.134;2023-05-21T04:29:01;5.75;;;2.75;;
39322;SDS011;25036;53.638;10.134;2023-05-21T04:30:02;6.70;;;2.63;;
39322;SDS011;25036;53.638;10.134;2023-05-21T04:31:03;6.68;;;2.75;;
39322;SDS011;25036;53.638;10.134;2023-05-21T04:32:04;5.00;;;2.95;;
39322;SDS011;25036;53.638;10.134;2023-05-21T04:33:05;5.75;;;2.63;;
39322;SDS011;25036;53.638;10.134;2023-05-21T04:34:05;5.53;;;2.77;;
39322;SDS011;25036;53.638;10.134;2023-05-21T04:35:05;8.77;;;3.10;;
39322;SDS011;25036;53.638;10.134;2023-05-21T04:36:05;6.18;;;2.75;;
39322;SDS011;25036;53.638;10.134;2023-05-21T04:37:08;5.68;;;2.95;;
39322;SDS011;25036;53.638;10.134;2023-05-21T04:38:09;4.65;;;2.40;;
39322;SDS011;25036;53.638;10.134;2023-05-21T04:39:10;4.07;;;2.75;;
39322;SDS011;25036;53.638;10.134;2023-05-21T04:40:11;8.85;;;3.80;;
39322;SDS011;25036;53.638;10.134;2023-05-21T04:41:16;6.28;;;2.70;;
39322;SDS011;25036;53.638;10.134;2023-05-21T04:42:17;6.25;;;3.00;;
39322;SDS011;25036;53.638;10.134;2023-05-21T04:43:18;6.45;;;2.75;;
39322;SDS011;25036;53.638;10.134;2023-05-21T04:44:24;5.50;;;2.45;;
39322;SDS011;25036;53.638;10.134;2023-05-21T04:45:25;6.70;;;2.83;;
39322;SDS011;25036;53.638;10.134;2023-05-21T04:46:25;4.50;;;2.80;;
39322;SDS011;25036;53.638;10.134;2023-05-21T04:47:25;5.10;;;2.92;;
39322;SDS011;25036;53.638;10.134;2023-05-21T04:48:29;4.47;;;2.78;;
39322;SDS011;25036;53.638;10.134;2023-05-21T04:49:29;6.13;;;2.30;;
39322;SDS011;25036;53.638;10.134;2023-05-21T04:50:29;6.25;;;2.75;;
39322;SDS011;25036;53.638;10.134;2023-05-21T04:51:30;6.28;;;2.83;;
39322;SDS011;25036;53.638;10.134;2023-05-21T04:52:30;6.13;;;3.05;;
39322;SDS011;25036;53.638;10.134;2023-05-21T04:53:30;4.27;;;2.80;;
39322;SDS011;25036;53.638;10.134;2023-05-21T04:54:30;5.53;;;2.50;;
39322;SDS011;25036;53.638;10.134;2023-05-21T04:55:31;4.53;;;2.30;;
39322;SDS011;25036;53.638;10.134;2023-05-21T04:56:31;5.80;;;3.07;;
39322;SDS011;25036;53.638;10.134;2023-05-21T04:57:31;7.38;;;2.33;;
39322;SDS011;25036;53.638;10.134;2023-05-21T04:58:31;6.37;;;2.83;;
39322;SDS011;25036;53.638;10.134;2023-05-21T04:59:33;5.50;;;2.83;;
39322;SDS011;25036;53.638;10.134;2023-05-21T05:00:33;7.88;;;3.20;;
39322;SDS011;25036;53.638;10.134;2023-05-21T05:01:36;6.93;;;2.42;;
39322;SDS011;25036;53.638;10.134;2023-05-21T05:02:37;5.18;;;2.60;;
39322;SDS011;25036;53.638;10.134;2023-05-21T05:03:37;4.67;;;2.50;;
39322;SDS011;25036;53.638;10.134;2023-05-21T05:04:37;5.87;;;2.70;;
39322;SDS011;25036;53.638;10.134;2023-05-21T05:05:38;6.47;;;2.60;;
39322;SDS011;25036;53.638;10.134;2023-05-21T05:06:38;6.38;;;2.65;;
39322;SDS011;25036;53.638;10.134;2023-05-21T05:07:38;5.27;;;2.73;;
39322;SDS011;25036;53.638;10.134;2023-05-21T05:08:38;7.40;;;2.80;;
39322;SDS011;25036;53.638;10.134;2023-05-21T05:09:38;5.88;;;2.90;;
39322;SDS011;25036;53.638;10.134;2023-05-21T05:10:38;6.43;;;2.50;;
39322;SDS011;25036;53.638;10.134;2023-05-21T05:11:38;4.77;;;3.03;;
39322;SDS011;25036;53.638;10.134;2023-05-21T05:12:39;4.10;;;2.87;;
39322;SDS011;25036;53.638;10.134;2023-05-21T05:13:39;5.10;;;2.50;;
39322;SDS011;25036;53.638;10.134;2023-05-21T05:14:40;6.18;;;3.03;;
39322;SDS011;25036;53.638;10.134;2023-05-21T05:15:40;5.93;;;3.10;;
39322;SDS011;25036;53.638;10.134;2023-05-21T05:16:41;5.57;;;2.80;;
39322;SDS011;25036;53.638;10.134;2023-05-21T05:17:41;5.50;;;2.92;;
39322;SDS011;25036;53.638;10.134;2023-05-21T05:18:41;4.37;;;2.60;;
39322;SDS011;25036;53.638;10.134;2023-05-21T05:19:41;5.43;;;2.50;;
39322;SDS011;25036;53.638;10.134;2023-05-21T05:20:42;4.13;;;2.70;;
39322;SDS011;25036;53.638;10.134;2023-05-21T05:21:42;6.17;;;2.73;;
39322;SDS011;25036;53.638;10.134;2023-05-21T05:22:42;5.60;;;3.43;;
39322;SDS011;25036;53.638;10.134;2023-05-21T05:23:42;5.63;;;3.17;;
39322;SDS011;25036;53.638;10.134;2023-05-21T05:24:42;7.70;;;3.40;;
39322;SDS011;25036;53.638;10.134;2023-05-21T05:25:42;8.30;;;2.87;;
39322;SDS011;25036;53.638;10.134;2023-05-21T05:26:42;8.17;;;3.20;;
39322;SDS011;25036;53.638;10.134;2023-05-21T05:27:43;9.68;;;3.05;;
39322;SDS011;25036;53.638;10.134;2023-05-21T05:28:43;7.03;;;3.10;;
39322;SDS011;25036;53.638;10.134;2023-05-21T05:29:44;8.98;;;3.20;;
39322;SDS011;25036;53.638;10.134;2023-05-21T05:30:45;6.43;;;2.65;;
39322;SDS011;25036;53.638;10.134;2023-05-21T05:31:45;4.90;;;2.73;;
39322;SDS011;25036;53.638;10.134;2023-05-21T05:32:45;6.67;;;2.67;;
39322;SDS011;25036;53.638;10.134;2023-05-21T05:33:45;5.65;;;2.72;;
39322;SDS011;25036;53.638;10.134;2023-05-21T05:34:46;6.97;;;2.50;;
39322;SDS011;25036;53.638;10.134;2023-05-21T05:35:46;7.03;;;2.60;;
39322;SDS011;25036;53.638;10.134;2023-05-21T05:36:46;5.03;;;2.65;;
39322;SDS011;25036;53.638;10.134;2023-05-21T05:37:46;6.63;;;2.70;;
39322;SDS011;25036;53.638;10.134;2023-05-21T05:38:46;4.57;;;2.63;;
39322;SDS011;25036;53.638;10.134;2023-05-21T05:39:46;5.10;;;3.13;;
39322;SDS011;25036;53.638;10.134;2023-05-21T05:40:47;6.45;;;3.00;;
39322;SDS011;25036;53.638;10.134;2023-05-21T05:41:47;8.93;;;3.80;;
39322;SDS011;25036;53.638;10.134;2023-05-21T05:42:47;6.53;;;2.90;;
39322;SDS011;25036;53.638;10.134;2023-05-21T05:43:48;7.18;;;3.17;;
39322;SDS011;25036;53.638;10.134;2023-05-21T05:44:48;5.83;;;3.00;;
39322;SDS011;25036;53.638;10.134;2023-05-21T05:45:48;4.32;;;2.47;;
39322;SDS011;25036;53.638;10.134;2023-05-21T05:46:48;6.03;;;3.07;;
39322;SDS011;25036;53.638;10.134;2023-05-21T05:47:49;6.20;;;3.00;;
39322;SDS011;25036;53.638;10.134;2023-05-21T05:48:49;5.03;;;3.03;;
39322;SDS011;25036;53.638;10.134;2023-05-21T05:49:49;6.72;;;3.05;;
39322;SDS011;25036;53.638;10.134;2023-05-21T05:50:50;5.93;;;2.88;;
39322;SDS011;25036;53.638;10.134;2023-05-21T05:51:53;4.53;;;2.60;;
39322;SDS011;25036;53.638;10.134;2023-05-21T05:52:53;6.70;;;3.22;;
39322;SDS011;25036;53.638;10.134;2023-05-21T05:53:54;5.22;;;2.85;;
39322;SDS011;25036;53.638;10.134;2023-05-21T05:54:54;8.30;;;3.47;;
39322;SDS011;25036;53.638;10.134;2023-05-21T05:55:54;6.78;;;3.45;;
39322;SDS011;25036;53.638;10.134;2023-05-21T05:56:54;4.80;;;2.63;;
39322;SDS011;25036;53.638;10.134;2023-05-21T05:57:54;7.97;;;3.20;;
39322;SDS011;25036;53.638;10.134;2023-05-21T05:58:55;10.97;;;3.63;;
39322;SDS011;25036;53.638;10.134;2023-05-21T05:59:55;8.03;;;3.30;;
39322;SDS011;25036;53.638;10.134;2023-05-21T06:00:55;5.93;;;2.70;;
39322;SDS011;25036;53.638;10.134;2023-05-21T06:01:55;6.57;;;2.95;;